sensor_id;sensor_type;location;lat;lon;timestamp;P1;durP1;ratioP1;P2;durP2;ratioP2
12356;SDS011;6243;51.244;6.774;2022-07-10T00:00:37;4.63;;;1.40;;
12356;SDS011;6243;51.244;6.774;2022-07-10T00:03:03;5.17;;;1.93;;
12356;SDS011;6243;51.244;6.774;2022-07-10T00:05:30;4.20;;;1.47;;
12356;SDS011;6243;51.244;6.774;2022-07-10T00:07:56;2.37;;;1.30;;
12356;SDS011;6243;51.244;6.774;2022-07-10T00:10:22;2.03;;;1.37;;
12356;SDS011;6243;51.244;6.774;2022-07-10T00:12:48;5.37;;;1.50;;
12356;SDS011;6243;51.244;6.774;2022-07-10T00:15:14;3.87;;;1.30;;
12356;SDS011;6243;51.244;6.774;2022-07-10T00:17:42;3.20;;;1.50;;
12356;SDS011;6243;51.244;6.774;2022-07-10T00:20:08;2.83;;;1.20;;
12356;SDS011;6243;51.244;6.774;2022-07-10T00:22:34;2.87;;;1.70;;
12356;SDS011;6243;51.244;6.774;2022-07-10T00:25:00;5.13;;;1.43;;
12356;SDS011;6243;51.244;6.774;2022-07-10T00:27:26;5.07;;;1.50;;
12356;SDS011;6243;51.244;6.774;2022-07-10T00:29:52;2.50;;;1.30;;
12356;SDS011;6243;51.244;6.774;2022-07-10T00:32:17;4.53;;;1.50;;
12356;SDS011;6243;51.244;6.774;2022-07-10T00:34:44;3.60;;;1.30;;
12356;SDS011;6243;51.244;6.774;2022-07-10T00:37:10;3.73;;;1.20;;
12356;SDS011;6243;51.244;6.774;2022-07-10T00:39:36;3.27;;;1.40;;
12356;SDS011;6243;51.244;6.774;2022-07-10T00:42:08;2.47;;;1.40;;
12356;SDS011;6243;51.244;6.774;2022-07-10T00:44:34;4.00;;;1.57;;
12356;SDS011;6243;51.244;6.774;2022-07-10T00:47:00;3.07;;;1.60;;
12356;SDS011;6243;51.244;6.774;2022-07-10T00:49:25;4.10;;;1.33;;
12356;SDS011;6243;51.244;6.774;2022-07-10T00:51:52;3.97;;;1.67;;
12356;SDS011;6243;51.244;6.774;2022-07-10T00:54:18;3.13;;;1.77;;
12356;SDS011;6243;51.244;6.774;2022-07-10T00:56:44;2.97;;;1.40;;
12356;SDS011;6243;51.244;6.774;2022-07-10T00:59:10;6.63;;;1.80;;
12356;SDS011;6243;51.244;6.774;2022-07-10T01:01:35;4.77;;;1.47;;
12356;SDS011;6243;51.244;6.774;2022-07-10T01:04:01;5.13;;;1.43;;
12356;SDS011;6243;51.244;6.774;2022-07-10T01:06:27;4.10;;;1.40;;
12356;SDS011;6243;51.244;6.774;2022-07-10T01:08:54;3.53;;;1.27;;
12356;SDS011;6243;51.244;6.774;2022-07-10T01:11:20;2.93;;;1.03;;
12356;SDS011;6243;51.244;6.774;2022-07-10T01:13:45;4.40;;;1.50;;
12356;SDS011;6243;51.244;6.774;2022-07-10T01:16:11;3.67;;;1.50;;
12356;SDS011;6243;51.244;6.774;2022-07-10T01:18:37;5.37;;;1.40;;
12356;SDS011;6243;51.244;6.774;2022-07-10T01:21:04;3.70;;;1.50;;
12356;SDS011;6243;51.244;6.774;2022-07-10T01:23:30;4.03;;;1.23;;
12356;SDS011;6243;51.244;6.774;2022-07-10T01:25:55;3.43;;;1.67;;
12356;SDS011;6243;51.244;6.774;2022-07-10T01:28:21;3.33;;;1.50;;
12356;SDS011;6243;51.244;6.774;2022-07-10T01:30:46;5.40;;;1.67;;
12356;SDS011;6243;51.244;6.774;2022-07-10T01:33:12;4.60;;;1.30;;
12356;SDS011;6243;51.244;6.774;2022-07-10T01:35:38;5.23;;;1.30;;
12356;SDS011;6243;51.244;6.774;2022-07-10T01:38:05;5.50;;;1.53;;
12356;SDS011;6243;51.244;6.774;2022-07-10T01:40:31;3.77;;;1.50;;
12356;SDS011;6243;51.244;6.774;2022-07-10T01:42:56;4.37;;;1.70;;
12356;SDS011;6243;51.244;6.774;2022-07-10T01:45:22;3.40;;;1.43;;
12356;SDS011;6243;51.244;6.774;2022-07-10T01:47:48;3.27;;;1.30;;
12356;SDS011;6243;51.244;6.774;2022-07-10T01:50:14;4.93;;;1.70;;
12356;SDS011;6243;51.244;6.774;2022-07-10T01:52:40;3.83;;;1.23;;
12356;SDS011;6243;51.244;6.774;2022-07-10T01:55:07;2.90;;;1.40;;
12356;SDS011;6243;51.244;6.774;2022-07-10T01:57:33;5.73;;;1.87;;
12356;SDS011;6243;51.244;6.774;2022-07-10T01:59:59;3.00;;;1.33;;
12356;SDS011;6243;51.244;6.774;2022-07-10T02:02:24;2.90;;;1.30;;
12356;SDS011;6243;51.244;6.774;2022-07-10T02:04:50;4.40;;;1.60;;
12356;SDS011;6243;51.244;6.774;2022-07-10T02:07:16;3.03;;;1.30;;
12356;SDS011;6243;51.244;6.774;2022-07-10T02:09:43;2.07;;;1.40;;
12356;SDS011;6243;51.244;6.774;2022-07-10T02:12:11;2.90;;;1.33;;
12356;SDS011;6243;51.244;6.774;2022-07-10T02:14:38;3.90;;;1.40;;
12356;SDS011;6243;51.244;6.774;2022-07-10T02:17:04;2.27;;;1.23;;
12356;SDS011;6243;51.244;6.774;2022-07-10T02:19:30;4.20;;;1.43;;
12356;SDS011;6243;51.244;6.774;2022-07-10T02:21:55;2.90;;;1.53;;
12356;SDS011;6243;51.244;6.774;2022-07-10T02:24:21;3.30;;;1.43;;
12356;SDS011;6243;51.244;6.774;2022-07-10T02:26:47;5.37;;;1.47;;
12356;SDS011;6243;51.244;6.774;2022-07-10T02:29:13;4.40;;;1.80;;
12356;SDS011;6243;51.244;6.774;2022-07-10T02:31:39;2.90;;;1.37;;
12356;SDS011;6243;51.244;6.774;2022-07-10T02:34:05;4.33;;;1.30;;
12356;SDS011;6243;51.244;6.774;2022-07-10T02:36:30;5.87;;;1.60;;
12356;SDS011;6243;51.244;6.774;2022-07-10T02:38:56;6.30;;;2.07;;
12356;SDS011;6243;51.244;6.774;2022-07-10T02:41:21;3.13;;;1.40;;
12356;SDS011;6243;51.244;6.774;2022-07-10T02:43:47;4.13;;;1.70;;
12356;SDS011;6243;51.244;6.774;2022-07-10T02:46:13;3.77;;;1.87;;
12356;SDS011;6243;51.244;6.774;2022-07-10T02:48:39;4.73;;;1.80;;
12356;SDS011;6243;51.244;6.774;2022-07-10T02:51:05;6.10;;;1.60;;
12356;SDS011;6243;51.244;6.774;2022-07-10T02:53:31;3.10;;;1.53;;
12356;SDS011;6243;51.244;6.774;2022-07-10T02:55:57;3.50;;;1.47;;
12356;SDS011;6243;51.244;6.774;2022-07-10T02:58:22;2.87;;;1.60;;
12356;SDS011;6243;51.244;6.774;2022-07-10T03:00:48;2.73;;;1.50;;
12356;SDS011;6243;51.244;6.774;2022-07-10T03:03:15;3.43;;;1.70;;
12356;SDS011;6243;51.244;6.774;2022-07-10T03:05:40;4.50;;;1.73;;
12356;SDS011;6243;51.244;6.774;2022-07-10T03:08:06;3.30;;;1.53;;
12356;SDS011;6243;51.244;6.774;2022-07-10T03:10:31;4.43;;;1.80;;
12356;SDS011;6243;51.244;6.774;2022-07-10T03:12:57;3.90;;;1.40;;
12356;SDS011;6243;51.244;6.774;2022-07-10T03:15:22;4.13;;;1.33;;
12356;SDS011;6243;51.244;6.774;2022-07-10T03:17:48;5.63;;;1.63;;
12356;SDS011;6243;51.244;6.774;2022-07-10T03:20:16;2.00;;;1.40;;
12356;SDS011;6243;51.244;6.774;2022-07-10T03:22:41;4.93;;;1.80;;
12356;SDS011;6243;51.244;6.774;2022-07-10T03:25:07;4.80;;;1.63;;
12356;SDS011;6243;51.244;6.774;2022-07-10T03:27:33;4.40;;;1.57;;
12356;SDS011;6243;51.244;6.774;2022-07-10T03:29:59;7.33;;;1.80;;
12356;SDS011;6243;51.244;6.774;2022-07-10T03:32:25;5.80;;;1.73;;
12356;SDS011;6243;51.244;6.774;2022-07-10T03:34:50;3.03;;;1.60;;
12356;SDS011;6243;51.244;6.774;2022-07-10T03:37:17;5.53;;;1.77;;
12356;SDS011;6243;51.244;6.774;2022-07-10T03:39:42;3.57;;;1.53;;
12356;SDS011;6243;51.244;6.774;2022-07-10T03:42:08;4.03;;;1.80;;
12356;SDS011;6243;51.244;6.774;2022-07-10T03:44:34;4.83;;;1.67;;
12356;SDS011;6243;51.244;6.774;2022-07-10T03:46:59;2.60;;;1.40;;
12356;SDS011;6243;51.244;6.774;2022-07-10T03:49:25;4.33;;;1.43;;
12356;SDS011;6243;51.244;6.774;2022-07-10T03:51:50;5.10;;;1.77;;
12356;SDS011;6243;51.244;6.774;2022-07-10T03:54:17;2.30;;;1.53;;
12356;SDS011;6243;51.244;6.774;2022-07-10T03:56:43;3.77;;;1.53;;
12356;SDS011;6243;51.244;6.774;2022-07-10T03:59:08;2.53;;;1.50;;
12356;SDS011;6243;51.244;6.774;2022-07-10T04:01:34;3.93;;;2.00;;
12356;SDS011;6243;51.244;6.774;2022-07-10T04:04:00;3.17;;;2.10;;
12356;SDS011;6243;51.244;6.774;2022-07-10T04:06:25;3.80;;;2.03;;
12356;SDS011;6243;51.244;6.774;2022-07-10T04:08:51;4.83;;;1.83;;
12356;SDS011;6243;51.244;6.774;2022-07-10T04:11:17;6.57;;;2.17;;
12356;SDS011;6243;51.244;6.774;2022-07-10T04:13:43;5.90;;;2.00;;
12356;SDS011;6243;51.244;6.774;2022-07-10T04:16:08;3.07;;;1.77;;
12356;SDS011;6243;51.244;6.774;2022-07-10T04:18:34;5.57;;;1.87;;
12356;SDS011;6243;51.244;6.774;2022-07-10T04:20:59;4.80;;;2.07;;
12356;SDS011;6243;51.244;6.774;2022-07-10T04:23:25;3.27;;;1.77;;
12356;SDS011;6243;51.244;6.774;2022-07-10T04:25:51;3.50;;;2.30;;
12356;SDS011;6243;51.244;6.774;2022-07-10T04:28:18;5.10;;;2.53;;
12356;SDS011;6243;51.244;6.774;2022-07-10T04:30:43;6.70;;;2.37;;
12356;SDS011;6243;51.244;6.774;2022-07-10T04:33:09;5.13;;;2.03;;
12356;SDS011;6243;51.244;6.774;2022-07-10T04:35:34;2.80;;;1.93;;
12356;SDS011;6243;51.244;6.774;2022-07-10T04:38:00;6.47;;;2.53;;
12356;SDS011;6243;51.244;6.774;2022-07-10T04:40:25;5.00;;;2.30;;
12356;SDS011;6243;51.244;6.774;2022-07-10T04:42:51;5.87;;;2.70;;
12356;SDS011;6243;51.244;6.774;2022-07-10T04:45:18;6.47;;;2.30;;
12356;SDS011;6243;51.244;6.774;2022-07-10T04:47:43;6.50;;;2.40;;
12356;SDS011;6243;51.244;6.774;2022-07-10T04:50:09;4.27;;;2.20;;
12356;SDS011;6243;51.244;6.774;2022-07-10T04:52:34;5.87;;;2.67;;
12356;SDS011;6243;51.244;6.774;2022-07-10T04:55:00;4.53;;;2.20;;
12356;SDS011;6243;51.244;6.774;2022-07-10T04:57:25;5.30;;;2.27;;
12356;SDS011;6243;51.244;6.774;2022-07-10T04:59:50;4.47;;;2.43;;
12356;SDS011;6243;51.244;6.774;2022-07-10T05:02:17;5.97;;;2.30;;
12356;SDS011;6243;51.244;6.774;2022-07-10T05:04:43;4.47;;;2.47;;
12356;SDS011;6243;51.244;6.774;2022-07-10T05:07:09;6.03;;;2.63;;
12356;SDS011;6243;51.244;6.774;2022-07-10T05:09:34;2.93;;;2.20;;
12356;SDS011;6243;51.244;6.774;2022-07-10T05:11:59;5.00;;;2.57;;
12356;SDS011;6243;51.244;6.774;2022-07-10T05:14:25;5.77;;;2.33;;
12356;SDS011;6243;51.244;6.774;2022-07-10T05:16:50;4.97;;;2.50;;
12356;SDS011;6243;51.244;6.774;2022-07-10T05:19:17;2.77;;;2.30;;
12356;SDS011;6243;51.244;6.774;2022-07-10T05:21:43;5.37;;;2.50;;
12356;SDS011;6243;51.244;6.774;2022-07-10T05:24:08;4.47;;;2.20;;
12356;SDS011;6243;51.244;6.774;2022-07-10T05:26:34;4.00;;;2.13;;
12356;SDS011;6243;51.244;6.774;2022-07-10T05:29:00;5.13;;;2.23;;
12356;SDS011;6243;51.244;6.774;2022-07-10T05:31:25;4.93;;;2.17;;
12356;SDS011;6243;51.244;6.774;2022-07-10T05:33:51;7.50;;;2.60;;
12356;SDS011;6243;51.244;6.774;2022-07-10T05:36:18;3.70;;;2.50;;
12356;SDS011;6243;51.244;6.774;2022-07-10T05:38:43;4.63;;;2.23;;
12356;SDS011;6243;51.244;6.774;2022-07-10T05:41:09;4.47;;;2.33;;
12356;SDS011;6243;51.244;6.774;2022-07-10T05:43:34;5.77;;;2.53;;
12356;SDS011;6243;51.244;6.774;2022-07-10T05:46:00;5.20;;;2.60;;
12356;SDS011;6243;51.244;6.774;2022-07-10T05:48:26;4.23;;;2.30;;
12356;SDS011;6243;51.244;6.774;2022-07-10T05:50:51;4.87;;;2.57;;
12356;SDS011;6243;51.244;6.774;2022-07-10T05:53:18;2.97;;;2.40;;
12356;SDS011;6243;51.244;6.774;2022-07-10T05:55:44;4.73;;;2.27;;
12356;SDS011;6243;51.244;6.774;2022-07-10T05:58:10;5.50;;;2.70;;
12356;SDS011;6243;51.244;6.774;2022-07-10T06:00:36;5.43;;;2.53;;
12356;SDS011;6243;51.244;6.774;2022-07-10T06:03:01;4.60;;;2.27;;
12356;SDS011;6243;51.244;6.774;2022-07-10T06:05:27;6.97;;;2.70;;
12356;SDS011;6243;51.244;6.774;2022-07-10T06:07:52;4.27;;;2.10;;
12356;SDS011;6243;51.244;6.774;2022-07-10T06:10:19;2.90;;;2.00;;
12356;SDS011;6243;51.244;6.774;2022-07-10T06:12:45;5.60;;;2.10;;
12356;SDS011;6243;51.244;6.774;2022-07-10T06:15:10;5.80;;;2.40;;
12356;SDS011;6243;51.244;6.774;2022-07-10T06:17:36;4.70;;;2.00;;
12356;SDS011;6243;51.244;6.774;2022-07-10T06:20:02;4.43;;;2.00;;
12356;SDS011;6243;51.244;6.774;2022-07-10T06:22:28;7.43;;;2.63;;
12356;SDS011;6243;51.244;6.774;2022-07-10T06:24:53;4.77;;;2.20;;
12356;SDS011;6243;51.244;6.774;2022-07-10T06:27:20;3.63;;;1.80;;
12356;SDS011;6243;51.244;6.774;2022-07-10T06:29:46;3.63;;;1.90;;
12356;SDS011;6243;51.244;6.774;2022-07-10T06:32:11;5.20;;;2.10;;
12356;SDS011;6243;51.244;6.774;2022-07-10T06:34:37;4.33;;;2.17;;
12356;SDS011;6243;51.244;6.774;2022-07-10T06:37:03;3.33;;;1.63;;
12356;SDS011;6243;51.244;6.774;2022-07-10T06:39:29;4.93;;;1.93;;
12356;SDS011;6243;51.244;6.774;2022-07-10T06:41:57;4.43;;;1.80;;
12356;SDS011;6243;51.244;6.774;2022-07-10T06:44:24;5.10;;;1.60;;
12356;SDS011;6243;51.244;6.774;2022-07-10T06:46:49;4.67;;;1.77;;
12356;SDS011;6243;51.244;6.774;2022-07-10T06:49:15;3.43;;;1.90;;
12356;SDS011;6243;51.244;6.774;2022-07-10T06:51:40;3.70;;;2.00;;
12356;SDS011;6243;51.244;6.774;2022-07-10T06:54:06;3.77;;;1.67;;
12356;SDS011;6243;51.244;6.774;2022-07-10T06:56:31;3.97;;;1.60;;
12356;SDS011;6243;51.244;6.774;2022-07-10T06:58:57;3.53;;;1.57;;
12356;SDS011;6243;51.244;6.774;2022-07-10T07:01:24;6.83;;;1.63;;
12356;SDS011;6243;51.244;6.774;2022-07-10T07:03:50;4.37;;;1.67;;
12356;SDS011;6243;51.244;6.774;2022-07-10T07:06:16;5.13;;;2.00;;
12356;SDS011;6243;51.244;6.774;2022-07-10T07:08:41;3.33;;;1.70;;
12356;SDS011;6243;51.244;6.774;2022-07-10T07:11:07;4.23;;;1.60;;
12356;SDS011;6243;51.244;6.774;2022-07-10T07:13:32;3.70;;;1.50;;
12356;SDS011;6243;51.244;6.774;2022-07-10T07:15:58;5.17;;;1.60;;
12356;SDS011;6243;51.244;6.774;2022-07-10T07:18:24;5.53;;;2.03;;
12356;SDS011;6243;51.244;6.774;2022-07-10T07:20:50;4.90;;;1.73;;
12356;SDS011;6243;51.244;6.774;2022-07-10T07:23:16;4.50;;;2.00;;
12356;SDS011;6243;51.244;6.774;2022-07-10T07:25:41;3.60;;;1.73;;
12356;SDS011;6243;51.244;6.774;2022-07-10T07:28:07;5.70;;;1.83;;
12356;SDS011;6243;51.244;6.774;2022-07-10T07:30:33;7.07;;;2.13;;
12356;SDS011;6243;51.244;6.774;2022-07-10T07:32:59;5.27;;;2.00;;
12356;SDS011;6243;51.244;6.774;2022-07-10T07:35:26;6.20;;;1.47;;
12356;SDS011;6243;51.244;6.774;2022-07-10T07:37:52;5.40;;;1.87;;
12356;SDS011;6243;51.244;6.774;2022-07-10T07:40:18;5.00;;;1.63;;
12356;SDS011;6243;51.244;6.774;2022-07-10T07:42:45;6.53;;;2.03;;
12356;SDS011;6243;51.244;6.774;2022-07-10T07:45:11;4.73;;;1.53;;
12356;SDS011;6243;51.244;6.774;2022-07-10T07:47:43;4.43;;;1.97;;
12356;SDS011;6243;51.244;6.774;2022-07-10T07:50:10;3.63;;;1.70;;
12356;SDS011;6243;51.244;6.774;2022-07-10T07:52:37;7.03;;;2.00;;
12356;SDS011;6243;51.244;6.774;2022-07-10T07:55:03;4.17;;;2.00;;
12356;SDS011;6243;51.244;6.774;2022-07-10T07:57:30;4.23;;;1.50;;
12356;SDS011;6243;51.244;6.774;2022-07-10T07:59:55;5.77;;;2.20;;
12356;SDS011;6243;51.244;6.774;2022-07-10T08:02:21;7.37;;;1.77;;
12356;SDS011;6243;51.244;6.774;2022-07-10T08:04:46;4.93;;;1.50;;
12356;SDS011;6243;51.244;6.774;2022-07-10T08:07:12;3.73;;;1.67;;
12356;SDS011;6243;51.244;6.774;2022-07-10T08:09:39;5.00;;;1.87;;
12356;SDS011;6243;51.244;6.774;2022-07-10T08:12:05;3.63;;;1.70;;
12356;SDS011;6243;51.244;6.774;2022-07-10T08:14:30;5.97;;;2.10;;
12356;SDS011;6243;51.244;6.774;2022-07-10T08:16:56;5.80;;;2.00;;
12356;SDS011;6243;51.244;6.774;2022-07-10T08:19:22;5.57;;;1.83;;
12356;SDS011;6243;51.244;6.774;2022-07-10T08:21:47;4.70;;;2.13;;
12356;SDS011;6243;51.244;6.774;2022-07-10T08:24:13;7.20;;;2.23;;
12356;SDS011;6243;51.244;6.774;2022-07-10T08:26:40;3.50;;;1.87;;
12356;SDS011;6243;51.244;6.774;2022-07-10T08:29:06;4.63;;;1.70;;
12356;SDS011;6243;51.244;6.774;2022-07-10T08:31:31;5.00;;;1.93;;
12356;SDS011;6243;51.244;6.774;2022-07-10T08:33:57;3.57;;;1.63;;
12356;SDS011;6243;51.244;6.774;2022-07-10T08:36:22;3.70;;;1.73;;
12356;SDS011;6243;51.244;6.774;2022-07-10T08:38:48;6.80;;;1.90;;
12356;SDS011;6243;51.244;6.774;2022-07-10T08:41:14;3.80;;;1.60;;
12356;SDS011;6243;51.244;6.774;2022-07-10T08:43:41;3.63;;;1.90;;
12356;SDS011;6243;51.244;6.774;2022-07-10T08:46:07;4.40;;;2.10;;
12356;SDS011;6243;51.244;6.774;2022-07-10T08:48:36;4.57;;;1.97;;
12356;SDS011;6243;51.244;6.774;2022-07-10T08:51:04;5.50;;;1.80;;
12356;SDS011;6243;51.244;6.774;2022-07-10T08:53:34;3.43;;;2.00;;
12356;SDS011;6243;51.244;6.774;2022-07-10T08:56:00;3.57;;;1.87;;
12356;SDS011;6243;51.244;6.774;2022-07-10T08:58:26;7.93;;;2.17;;
12356;SDS011;6243;51.244;6.774;2022-07-10T09:00:53;4.23;;;1.60;;
12356;SDS011;6243;51.244;6.774;2022-07-10T09:03:19;6.23;;;2.00;;
12356;SDS011;6243;51.244;6.774;2022-07-10T09:05:44;4.90;;;2.20;;
12356;SDS011;6243;51.244;6.774;2022-07-10T09:08:22;8.07;;;2.17;;
12356;SDS011;6243;51.244;6.774;2022-07-10T09:10:48;4.03;;;1.93;;
12356;SDS011;6243;51.244;6.774;2022-07-10T09:13:14;3.77;;;2.00;;
12356;SDS011;6243;51.244;6.774;2022-07-10T09:15:39;5.50;;;1.90;;
12356;SDS011;6243;51.244;6.774;2022-07-10T09:18:17;6.30;;;1.90;;
12356;SDS011;6243;51.244;6.774;2022-07-10T09:20:44;3.73;;;2.27;;
12356;SDS011;6243;51.244;6.774;2022-07-10T09:23:14;6.17;;;2.07;;
12356;SDS011;6243;51.244;6.774;2022-07-10T09:25:41;5.70;;;2.43;;
12356;SDS011;6243;51.244;6.774;2022-07-10T09:28:06;5.13;;;2.27;;
12356;SDS011;6243;51.244;6.774;2022-07-10T09:30:32;6.17;;;2.00;;
12356;SDS011;6243;51.244;6.774;2022-07-10T09:33:15;4.77;;;2.27;;
12356;SDS011;6243;51.244;6.774;2022-07-10T09:35:53;5.23;;;1.87;;
12356;SDS011;6243;51.244;6.774;2022-07-10T09:38:22;5.50;;;2.20;;
12356;SDS011;6243;51.244;6.774;2022-07-10T09:40:48;6.13;;;2.17;;
12356;SDS011;6243;51.244;6.774;2022-07-10T09:43:14;4.83;;;2.30;;
12356;SDS011;6243;51.244;6.774;2022-07-10T09:45:39;8.13;;;2.30;;
12356;SDS011;6243;51.244;6.774;2022-07-10T09:48:05;7.80;;;2.40;;
12356;SDS011;6243;51.244;6.774;2022-07-10T09:50:32;5.03;;;2.40;;
12356;SDS011;6243;51.244;6.774;2022-07-10T09:52:59;5.33;;;1.80;;
12356;SDS011;6243;51.244;6.774;2022-07-10T09:55:26;4.77;;;2.50;;
12356;SDS011;6243;51.244;6.774;2022-07-10T09:57:53;3.77;;;2.17;;
12356;SDS011;6243;51.244;6.774;2022-07-10T10:00:21;7.20;;;2.60;;
12356;SDS011;6243;51.244;6.774;2022-07-10T10:02:48;6.63;;;2.57;;
12356;SDS011;6243;51.244;6.774;2022-07-10T10:05:15;4.23;;;2.37;;
12356;SDS011;6243;51.244;6.774;2022-07-10T10:07:42;3.67;;;2.40;;
12356;SDS011;6243;51.244;6.774;2022-07-10T10:10:10;3.63;;;2.13;;
12356;SDS011;6243;51.244;6.774;2022-07-10T10:12:38;3.23;;;2.30;;
12356;SDS011;6243;51.244;6.774;2022-07-10T10:15:09;2.70;;;1.43;;
12356;SDS011;6243;51.244;6.774;2022-07-10T10:17:35;3.07;;;1.73;;
12356;SDS011;6243;51.244;6.774;2022-07-10T10:20:02;1.80;;;1.53;;
12356;SDS011;6243;51.244;6.774;2022-07-10T10:22:28;1.30;;;1.20;;
12356;SDS011;6243;51.244;6.774;2022-07-10T10:24:56;1.73;;;1.20;;
12356;SDS011;6243;51.244;6.774;2022-07-10T10:27:23;1.63;;;1.10;;
12356;SDS011;6243;51.244;6.774;2022-07-10T10:29:50;2.27;;;1.10;;
12356;SDS011;6243;51.244;6.774;2022-07-10T10:32:16;1.37;;;0.93;;
12356;SDS011;6243;51.244;6.774;2022-07-10T10:34:42;2.10;;;0.97;;
12356;SDS011;6243;51.244;6.774;2022-07-10T10:40:02;2.70;;;1.00;;
12356;SDS011;6243;51.244;6.774;2022-07-10T10:42:31;1.07;;;0.97;;
12356;SDS011;6243;51.244;6.774;2022-07-10T10:47:57;1.63;;;1.10;;
12356;SDS011;6243;51.244;6.774;2022-07-10T10:50:35;1.50;;;1.00;;
12356;SDS011;6243;51.244;6.774;2022-07-10T10:53:01;1.27;;;0.93;;
12356;SDS011;6243;51.244;6.774;2022-07-10T10:55:28;1.53;;;1.17;;
12356;SDS011;6243;51.244;6.774;2022-07-10T10:57:54;1.93;;;1.37;;
12356;SDS011;6243;51.244;6.774;2022-07-10T11:00:39;3.73;;;1.67;;
12356;SDS011;6243;51.244;6.774;2022-07-10T11:03:17;2.87;;;1.40;;
12356;SDS011;6243;51.244;6.774;2022-07-10T11:05:45;2.63;;;1.37;;
12356;SDS011;6243;51.244;6.774;2022-07-10T11:08:12;3.90;;;1.63;;
12356;SDS011;6243;51.244;6.774;2022-07-10T11:10:40;3.00;;;1.60;;
12356;SDS011;6243;51.244;6.774;2022-07-10T11:13:07;3.43;;;1.50;;
12356;SDS011;6243;51.244;6.774;2022-07-10T11:15:34;2.50;;;1.63;;
12356;SDS011;6243;51.244;6.774;2022-07-10T11:18:03;1.50;;;1.40;;
12356;SDS011;6243;51.244;6.774;2022-07-10T11:20:31;1.40;;;1.30;;
12356;SDS011;6243;51.244;6.774;2022-07-10T11:23:02;1.77;;;1.67;;
12356;SDS011;6243;51.244;6.774;2022-07-10T11:25:41;3.60;;;2.03;;
12356;SDS011;6243;51.244;6.774;2022-07-10T11:28:07;2.27;;;1.67;;
12356;SDS011;6243;51.244;6.774;2022-07-10T11:30:44;2.80;;;1.90;;
12356;SDS011;6243;51.244;6.774;2022-07-10T11:33:14;3.93;;;2.07;;
12356;SDS011;6243;51.244;6.774;2022-07-10T11:35:40;3.53;;;2.10;;
12356;SDS011;6243;51.244;6.774;2022-07-10T11:38:09;4.17;;;1.93;;
12356;SDS011;6243;51.244;6.774;2022-07-10T11:40:35;3.43;;;1.83;;
12356;SDS011;6243;51.244;6.774;2022-07-10T11:43:02;2.50;;;1.83;;
12356;SDS011;6243;51.244;6.774;2022-07-10T11:45:28;4.00;;;1.93;;
12356;SDS011;6243;51.244;6.774;2022-07-10T11:47:54;3.70;;;2.20;;
12356;SDS011;6243;51.244;6.774;2022-07-10T11:50:21;2.60;;;1.70;;
12356;SDS011;6243;51.244;6.774;2022-07-10T11:52:46;3.23;;;1.60;;
12356;SDS011;6243;51.244;6.774;2022-07-10T11:55:15;6.90;;;1.60;;
12356;SDS011;6243;51.244;6.774;2022-07-10T11:57:41;1.97;;;1.70;;
12356;SDS011;6243;51.244;6.774;2022-07-10T12:00:09;2.80;;;1.73;;
12356;SDS011;6243;51.244;6.774;2022-07-10T12:02:46;3.47;;;1.80;;
12356;SDS011;6243;51.244;6.774;2022-07-10T12:07:55;3.53;;;1.83;;
12356;SDS011;6243;51.244;6.774;2022-07-10T12:10:21;2.73;;;1.80;;
12356;SDS011;6243;51.244;6.774;2022-07-10T12:12:51;2.20;;;2.00;;
12356;SDS011;6243;51.244;6.774;2022-07-10T12:15:31;3.63;;;1.83;;
12356;SDS011;6243;51.244;6.774;2022-07-10T12:17:57;4.40;;;1.70;;
12356;SDS011;6243;51.244;6.774;2022-07-10T12:20:23;4.47;;;1.90;;
12356;SDS011;6243;51.244;6.774;2022-07-10T12:22:49;3.50;;;1.90;;
12356;SDS011;6243;51.244;6.774;2022-07-10T12:25:15;4.33;;;1.83;;
12356;SDS011;6243;51.244;6.774;2022-07-10T12:27:41;3.87;;;1.67;;
12356;SDS011;6243;51.244;6.774;2022-07-10T12:30:06;4.10;;;2.10;;
12356;SDS011;6243;51.244;6.774;2022-07-10T12:32:34;3.90;;;2.10;;
12356;SDS011;6243;51.244;6.774;2022-07-10T12:34:59;3.07;;;1.70;;
12356;SDS011;6243;51.244;6.774;2022-07-10T12:37:25;6.53;;;2.23;;
12356;SDS011;6243;51.244;6.774;2022-07-10T12:39:51;3.93;;;1.90;;
12356;SDS011;6243;51.244;6.774;2022-07-10T12:42:24;3.60;;;2.03;;
12356;SDS011;6243;51.244;6.774;2022-07-10T12:44:50;5.00;;;2.23;;
12356;SDS011;6243;51.244;6.774;2022-07-10T12:47:16;3.80;;;2.20;;
12356;SDS011;6243;51.244;6.774;2022-07-10T12:49:50;5.00;;;2.13;;
12356;SDS011;6243;51.244;6.774;2022-07-10T12:52:21;4.13;;;2.10;;
12356;SDS011;6243;51.244;6.774;2022-07-10T12:57:32;4.73;;;2.17;;
12356;SDS011;6243;51.244;6.774;2022-07-10T13:00:02;5.90;;;2.17;;
12356;SDS011;6243;51.244;6.774;2022-07-10T13:02:29;5.33;;;2.30;;
12356;SDS011;6243;51.244;6.774;2022-07-10T13:04:56;3.93;;;2.40;;
12356;SDS011;6243;51.244;6.774;2022-07-10T13:07:29;3.90;;;1.97;;
12356;SDS011;6243;51.244;6.774;2022-07-10T13:09:55;2.60;;;1.80;;
12356;SDS011;6243;51.244;6.774;2022-07-10T13:12:20;4.60;;;2.10;;
12356;SDS011;6243;51.244;6.774;2022-07-10T13:14:46;3.70;;;2.00;;
12356;SDS011;6243;51.244;6.774;2022-07-10T13:17:11;3.27;;;1.67;;
12356;SDS011;6243;51.244;6.774;2022-07-10T13:19:37;4.07;;;1.83;;
12356;SDS011;6243;51.244;6.774;2022-07-10T13:22:04;3.60;;;1.60;;
12356;SDS011;6243;51.244;6.774;2022-07-10T13:24:29;3.63;;;1.60;;
12356;SDS011;6243;51.244;6.774;2022-07-10T13:26:55;2.77;;;1.77;;
12356;SDS011;6243;51.244;6.774;2022-07-10T13:29:21;3.23;;;1.70;;
12356;SDS011;6243;51.244;6.774;2022-07-10T13:31:46;2.43;;;1.40;;
12356;SDS011;6243;51.244;6.774;2022-07-10T13:34:12;3.73;;;1.63;;
12356;SDS011;6243;51.244;6.774;2022-07-10T13:36:37;4.00;;;1.70;;
12356;SDS011;6243;51.244;6.774;2022-07-10T13:39:04;3.13;;;1.60;;
12356;SDS011;6243;51.244;6.774;2022-07-10T13:41:30;2.80;;;1.60;;
12356;SDS011;6243;51.244;6.774;2022-07-10T13:43:55;3.13;;;1.40;;
12356;SDS011;6243;51.244;6.774;2022-07-10T13:46:21;1.70;;;1.20;;
12356;SDS011;6243;51.244;6.774;2022-07-10T13:48:46;3.00;;;1.50;;
12356;SDS011;6243;51.244;6.774;2022-07-10T13:51:12;2.27;;;1.57;;
12356;SDS011;6243;51.244;6.774;2022-07-10T13:53:38;5.63;;;1.70;;
12356;SDS011;6243;51.244;6.774;2022-07-10T13:56:06;5.90;;;1.77;;
12356;SDS011;6243;51.244;6.774;2022-07-10T13:58:32;3.17;;;1.70;;
12356;SDS011;6243;51.244;6.774;2022-07-10T14:00:59;4.23;;;1.70;;
12356;SDS011;6243;51.244;6.774;2022-07-10T14:03:25;2.80;;;1.57;;
12356;SDS011;6243;51.244;6.774;2022-07-10T14:05:50;8.23;;;2.40;;
12356;SDS011;6243;51.244;6.774;2022-07-10T14:08:16;3.93;;;1.70;;
12356;SDS011;6243;51.244;6.774;2022-07-10T14:10:41;3.40;;;1.57;;
12356;SDS011;6243;51.244;6.774;2022-07-10T14:13:08;5.13;;;1.90;;
12356;SDS011;6243;51.244;6.774;2022-07-10T14:15:34;2.97;;;1.50;;
12356;SDS011;6243;51.244;6.774;2022-07-10T14:18:00;2.07;;;1.50;;
12356;SDS011;6243;51.244;6.774;2022-07-10T14:20:25;2.27;;;1.40;;
12356;SDS011;6243;51.244;6.774;2022-07-10T14:22:51;2.00;;;1.27;;
12356;SDS011;6243;51.244;6.774;2022-07-10T14:25:16;2.80;;;1.67;;
12356;SDS011;6243;51.244;6.774;2022-07-10T14:27:44;2.60;;;1.50;;
12356;SDS011;6243;51.244;6.774;2022-07-10T14:30:11;2.37;;;1.40;;
12356;SDS011;6243;51.244;6.774;2022-07-10T14:32:36;2.53;;;1.43;;
12356;SDS011;6243;51.244;6.774;2022-07-10T14:35:02;1.90;;;1.33;;
12356;SDS011;6243;51.244;6.774;2022-07-10T14:37:27;3.33;;;1.40;;
12356;SDS011;6243;51.244;6.774;2022-07-10T14:39:53;2.57;;;1.50;;
12356;SDS011;6243;51.244;6.774;2022-07-10T14:42:18;3.53;;;1.57;;
12356;SDS011;6243;51.244;6.774;2022-07-10T14:44:44;1.87;;;1.43;;
12356;SDS011;6243;51.244;6.774;2022-07-10T14:47:11;2.37;;;1.33;;
12356;SDS011;6243;51.244;6.774;2022-07-10T14:49:37;2.30;;;1.67;;
12356;SDS011;6243;51.244;6.774;2022-07-10T14:52:03;2.80;;;1.53;;
12356;SDS011;6243;51.244;6.774;2022-07-10T14:54:29;2.27;;;1.60;;
12356;SDS011;6243;51.244;6.774;2022-07-10T14:56:55;3.50;;;1.67;;
12356;SDS011;6243;51.244;6.774;2022-07-10T14:59:20;3.70;;;1.60;;
12356;SDS011;6243;51.244;6.774;2022-07-10T15:01:45;3.20;;;1.50;;
12356;SDS011;6243;51.244;6.774;2022-07-10T15:04:12;1.77;;;1.63;;
12356;SDS011;6243;51.244;6.774;2022-07-10T15:06:38;1.90;;;1.20;;